KARM

Details ICAO KARM
Name WHARTON RGNL
Region United States
Timezone America/Chicago (UTC-6.0)
Plans Departing 2
Arriving 4
Stats Elevation 100 ft / 30 m (AMSL)
Location 29.254265° -96.154402°
Runways 1
Magnetic Variation 2.961° E
Sunrise 2017-12-13 13:11:35 UTC / 2017-12-13 07:11:35 Local
Sunset 2017-12-13 23:29:08 UTC / 2017-12-13 17:29:08 Local
Advertisement - Login to hide

Runways

ID Width Length Bearing (true) Bearing (mag) Surface Threshold Offset Overrun Length
14 75 ft / 23 m 5,016 ft / 1,529 m 150.93° 147.97° Asphalt 0 ft / 0 m 0 ft / 0 m
32 75 ft / 23 m 5,016 ft / 1,529 m 330.94° 327.98° Asphalt 0 ft / 0 m 0 ft / 0 m

Map

Weather


0- 5 10 15 20 25 30 35+ Temperature / ° C

Clouds and Precipitation
Forecast for 2017-12-14 06:00 UTC. Updated 2 hours ago

Ground ~20,000 ft ~40,000 ft Winds

METAR

KARM 140235Z AUTO 17005KT 10SM CLR 09/04 A3001 RMK AO2 T00880041

TAF

Not found

Frequencies

Recorded 118.47 MHz AWOS 3
Unicom 122.70 MHz CTAF/UNICOM
Warning: Do not use this data for real-world aviation or navigation. No guarantee of current accuracy is given.